createdAt,value
2018-02-01T00:02:01.139Z,67.59
2018-02-01T00:04:32.269Z,67.87
2018-02-01T00:07:03.356Z,67.89
2018-02-01T00:09:34.154Z,67.95
2018-02-01T00:12:04.725Z,67.76
2018-02-01T00:14:35.547Z,67.68
2018-02-01T00:17:06.732Z,67.54
2018-02-01T00:19:37.919Z,67.41
2018-02-01T00:22:09.126Z,67.21
2018-02-01T00:24:39.554Z,67.39
2018-02-01T00:27:10.072Z,67.33
2018-02-01T00:29:40.943Z,67.67
2018-02-01T00:32:12.295Z,67.83
2018-02-01T00:34:42.636Z,67.66
2018-02-01T00:37:14.262Z,67.75
2018-02-01T00:39:45.568Z,67.87
2018-02-01T00:42:15.913Z,67.85
2018-02-01T00:44:46.462Z,67.73
2018-02-01T00:47:17.991Z,67.91
2018-02-01T00:49:49.498Z,68.03
2018-02-01T00:52:19.955Z,67.87
2018-02-01T00:54:50.564Z,67.90
2018-02-01T00:57:20.882Z,68.02
2018-02-01T00:59:52.536Z,67.82
2018-02-01T01:02:23.750Z,67.79
2018-02-01T01:04:54.598Z,68.08
2018-02-01T01:07:27.600Z,67.55
2018-02-01T01:09:58.636Z,67.65
2018-02-01T01:12:30.296Z,67.30
2018-02-01T01:15:03.210Z,66.91
2018-02-01T01:17:33.735Z,66.83
2018-02-01T01:20:04.906Z,66.67
2018-02-01T01:22:35.650Z,66.33
2018-02-01T01:25:06.100Z,66.23
2018-02-01T01:27:36.887Z,65.33
2018-02-01T01:30:08.586Z,65.52
2018-02-01T01:32:39.845Z,65.50
2018-02-01T01:35:10.645Z,65.68
2018-02-01T01:37:41.964Z,65.54
2018-02-01T01:40:13.045Z,65.50
2018-02-01T01:42:43.576Z,65.48
2018-02-01T01:45:17.097Z,65.55
2018-02-01T01:47:47.709Z,65.54
2018-02-01T01:50:18.023Z,65.67
2018-02-01T01:52:48.940Z,65.16
2018-02-01T01:55:19.243Z,66.12
2018-02-01T01:57:50.276Z,66.24
2018-02-01T02:00:21.325Z,66.03
2018-02-01T02:02:51.738Z,66.18
2018-02-01T02:05:23.343Z,66.10
2018-02-01T02:07:56.310Z,65.96
2018-02-01T02:10:27.589Z,65.93
2018-02-01T02:12:58.463Z,66.12
2018-02-01T02:19:31.105Z,67.08
2018-02-01T02:22:01.618Z,67.34
2018-02-01T02:24:38.824Z,67.31
2018-02-01T02:30:08.143Z,66.97
2018-02-01T02:32:38.505Z,66.96
2018-02-01T02:35:08.788Z,66.61
2018-02-01T02:37:40.097Z,66.47
2018-02-01T02:40:10.470Z,67.04
2018-02-01T02:42:40.753Z,66.68
2018-02-01T02:45:13.730Z,66.34
2018-02-01T02:47:43.899Z,66.53
2018-02-01T02:50:14.117Z,66.86
2018-02-01T02:52:44.358Z,66.78
2018-02-01T02:55:17.423Z,66.92
2018-02-01T02:57:48.914Z,67.14
2018-02-01T03:00:19.648Z,67.94
2018-02-01T03:02:50.493Z,67.30
2018-02-01T03:05:21.081Z,67.02
2018-02-01T03:07:51.435Z,67.49
2018-02-01T03:10:21.636Z,67.59
2018-02-01T03:12:52.483Z,66.97
2018-02-01T03:15:24.567Z,67.07
2018-02-01T03:17:55.711Z,66.94
2018-02-01T03:20:26.893Z,67.24
2018-02-01T03:22:58.149Z,67.36
2018-02-01T03:25:29.184Z,66.93
2018-02-01T03:28:01.114Z,66.92
2018-02-01T03:30:38.348Z,66.89
2018-02-01T03:33:08.580Z,66.70
2018-02-01T03:35:39.221Z,66.84
2018-02-01T03:38:10.019Z,66.84
2018-02-01T03:41:00.089Z,67.68
2018-02-01T03:43:32.287Z,67.32
2018-02-01T03:46:05.178Z,67.16
2018-02-01T03:48:35.417Z,67.25
2018-02-01T03:51:06.449Z,66.86
2018-02-01T03:53:36.759Z,66.91
2018-02-01T03:56:08.850Z,67.17
2018-02-01T03:58:39.255Z,67.21
2018-02-01T04:04:49.687Z,67.30
2018-02-01T04:07:20.886Z,67.55
2018-02-01T04:09:51.166Z,67.87
2018-02-01T04:12:21.478Z,67.84
2018-02-01T04:14:56.104Z,67.89
2018-02-01T04:17:32.573Z,67.80
2018-02-01T04:20:08.672Z,67.55
2018-02-01T04:22:46.830Z,67.39
2018-02-01T04:25:17.918Z,67.47
2018-02-01T04:27:49.074Z,67.39
2018-02-01T04:30:19.632Z,67.14
2018-02-01T04:32:53.530Z,67.15
2018-02-01T04:35:29.123Z,67.18
2018-02-01T04:37:59.372Z,67.53
2018-02-01T04:40:31.393Z,67.36
2018-02-01T04:43:01.675Z,67.50
2018-02-01T04:45:32.814Z,67.50
2018-02-01T04:48:03.477Z,68.47
2018-02-01T04:50:34.114Z,68.40
2018-02-01T04:53:04.590Z,68.69
2018-02-01T04:55:35.052Z,68.58
2018-02-01T04:58:05.270Z,68.50
2018-02-01T05:00:36.475Z,68.57
2018-02-01T05:03:06.644Z,68.72
2018-02-01T05:05:37.627Z,68.84
2018-02-01T05:08:07.926Z,68.85
2018-02-01T05:10:38.254Z,68.49
2018-02-01T05:13:08.932Z,68.44
2018-02-01T05:15:40.293Z,68.21
2018-02-01T05:18:11.263Z,68.50
2018-02-01T05:20:41.961Z,67.99
2018-02-01T05:23:12.321Z,67.71
2018-02-01T05:25:42.811Z,67.92
2018-02-01T05:28:13.033Z,67.44
2018-02-01T05:30:43.924Z,67.17
2018-02-01T05:33:14.216Z,67.29
2018-02-01T05:35:44.422Z,67.88
2018-02-01T05:38:14.738Z,68.38
2018-02-01T05:40:45.012Z,68.81
2018-02-01T05:43:15.152Z,68.34
2018-02-01T05:45:45.651Z,69.00
2018-02-01T05:48:17.019Z,69.79
2018-02-01T05:50:47.789Z,69.76
2018-02-01T05:53:18.220Z,69.75
2018-02-01T05:55:48.511Z,70.19
2018-02-01T05:58:19.166Z,70.57
2018-02-01T06:00:49.763Z,70.59
2018-02-01T06:03:20.149Z,69.74
2018-02-01T06:05:50.624Z,70.23
2018-02-01T06:08:20.928Z,69.70
2018-02-01T06:10:51.175Z,69.51
2018-02-01T06:13:21.752Z,69.30
2018-02-01T06:15:52.492Z,69.78
2018-02-01T06:18:33.068Z,69.66
2018-02-01T06:24:13.026Z,70.26
2018-02-01T06:26:43.366Z,69.93
2018-02-01T06:29:13.912Z,70.25
2018-02-01T06:31:46.198Z,70.75
2018-02-01T06:34:16.643Z,71.03
2018-02-01T06:36:51.636Z,70.70
2018-02-01T06:39:23.472Z,70.62
2018-02-01T06:41:55.724Z,71.18
2018-02-01T06:47:08.186Z,70.67
2018-02-01T06:49:40.544Z,69.85
2018-02-01T06:52:11.094Z,69.06
2018-02-01T06:54:41.837Z,68.89
2018-02-01T06:57:12.096Z,68.73
2018-02-01T06:59:43.254Z,68.90
2018-02-01T07:02:14.336Z,68.86
2018-02-01T07:04:45.021Z,68.45
2018-02-01T07:07:15.729Z,68.25
2018-02-01T07:09:47.306Z,68.20
2018-02-01T07:12:17.629Z,69.63
2018-02-01T07:14:50.069Z,70.08
2018-02-01T07:17:21.969Z,69.03
2018-02-01T07:19:52.249Z,68.44
2018-02-01T07:22:24.893Z,68.06
2018-02-01T07:24:55.810Z,68.96
2018-02-01T07:27:27.040Z,69.48
2018-02-01T07:29:59.692Z,69.52
2018-02-01T07:32:30.823Z,70.13
2018-02-01T07:35:05.182Z,70.02
2018-02-01T07:37:38.395Z,69.50
2018-02-01T07:40:11.606Z,69.45
2018-02-01T07:42:43.962Z,69.61
2018-02-01T07:45:18.012Z,70.08
2018-02-01T07:47:48.495Z,70.20
2018-02-01T07:50:20.284Z,70.68
2018-02-01T07:52:51.104Z,69.58
2018-02-01T07:55:23.336Z,68.99
2018-02-01T07:57:58.060Z,69.77
2018-02-01T08:00:31.714Z,69.15
2018-02-01T08:03:02.969Z,68.79
2018-02-01T08:05:33.688Z,68.20
2018-02-01T08:08:05.131Z,68.27
2018-02-01T08:10:39.201Z,68.32
2018-02-01T08:13:10.052Z,68.94
2018-02-01T08:15:40.621Z,69.22
2018-02-01T08:18:11.113Z,68.29
2018-02-01T08:20:43.413Z,68.53
2018-02-01T08:23:14.880Z,69.00
2018-02-01T08:25:51.340Z,69.58
2018-02-01T08:28:22.853Z,69.03
2018-02-01T08:30:55.351Z,68.16
2018-02-01T08:33:30.786Z,68.04
2018-02-01T08:36:01.985Z,67.42
2018-02-01T08:38:39.229Z,66.26
2018-02-01T08:41:19.971Z,66.40
2018-02-01T08:44:01.690Z,66.60
2018-02-01T08:46:48.206Z,65.89
2018-02-01T08:49:20.021Z,65.87
2018-02-01T08:51:51.516Z,64.97
2018-02-01T08:54:22.172Z,64.87
2018-02-01T08:56:52.825Z,63.54
2018-02-01T08:59:24.487Z,59.50
2018-02-01T09:01:55.681Z,57.35
2018-02-01T09:04:26.585Z,55.84
2018-02-01T09:07:00.042Z,54.36
2018-02-01T09:09:31.745Z,54.81
2018-02-01T09:12:03.294Z,54.28
2018-02-01T09:14:34.224Z,51.96
2018-02-01T09:17:05.599Z,52.80
2018-02-01T09:19:38.178Z,53.99
2018-02-01T09:22:09.280Z,51.43
2018-02-01T09:24:40.328Z,55.32
2018-02-01T09:27:13.098Z,56.22
2018-02-01T09:29:43.344Z,56.50
2018-02-01T09:32:14.473Z,54.47
2018-02-01T09:34:46.019Z,51.12
2018-02-01T09:37:17.624Z,54.75
2018-02-01T09:39:48.867Z,55.99
2018-02-01T09:42:20.511Z,57.44
2018-02-01T09:44:51.604Z,56.97
2018-02-01T09:47:24.225Z,57.56
2018-02-01T09:49:54.828Z,57.75
2018-02-01T09:52:26.111Z,58.09
2018-02-01T09:54:56.690Z,58.99
2018-02-01T09:57:27.312Z,58.48
2018-02-01T09:59:57.842Z,58.69
2018-02-01T10:02:29.387Z,59.82
2018-02-01T10:05:00.952Z,60.05
2018-02-01T10:07:38.219Z,60.10
2018-02-01T10:10:08.956Z,59.41
2018-02-01T10:12:46.847Z,59.49
2018-02-01T10:15:18.470Z,59.85
2018-02-01T10:17:50.044Z,59.12
2018-02-01T10:20:23.775Z,58.02
2018-02-01T10:22:55.619Z,56.73
2018-02-01T10:25:29.714Z,55.42
2018-02-01T10:28:04.252Z,54.38
2018-02-01T10:30:36.258Z,55.12
2018-02-01T10:33:09.651Z,56.06
2018-02-01T10:35:41.522Z,56.77
2018-02-01T10:38:15.683Z,58.10
2018-02-01T10:40:48.354Z,58.03
2018-02-01T10:43:24.501Z,57.51
2018-02-01T10:46:02.570Z,57.19
2018-02-01T10:48:33.815Z,57.63
2018-02-01T10:51:04.612Z,58.16
2018-02-01T10:53:35.059Z,58.25
2018-02-01T10:56:06.977Z,57.45
2018-02-01T10:58:37.942Z,58.20
2018-02-01T11:01:09.192Z,58.22
2018-02-01T11:03:41.957Z,58.77
2018-02-01T11:06:12.878Z,58.33
2018-02-01T11:08:45.827Z,58.55
2018-02-01T11:11:20.781Z,58.40
2018-02-01T11:13:52.351Z,58.69
2018-02-01T11:16:23.184Z,57.68
2018-02-01T11:18:54.106Z,57.90
2018-02-01T11:21:27.343Z,57.58
2018-02-01T11:23:58.130Z,56.96
2018-02-01T11:26:31.041Z,56.26
2018-02-01T11:29:01.226Z,56.27
2018-02-01T11:31:33.333Z,55.60
2018-02-01T11:34:04.127Z,55.12
2018-02-01T11:36:34.426Z,55.24
2018-02-01T11:39:08.304Z,55.28
2018-02-01T11:41:42.484Z,55.55
2018-02-01T11:44:13.495Z,55.08
2018-02-01T11:46:44.050Z,55.10
2018-02-01T11:49:15.775Z,55.32
2018-02-01T11:51:46.434Z,55.98
2018-02-01T11:54:16.921Z,55.91
2018-02-01T11:56:54.094Z,56.13
2018-02-01T11:59:25.447Z,55.90
2018-02-01T12:01:55.869Z,55.87
2018-02-01T12:04:26.845Z,55.47
2018-02-01T12:06:57.762Z,55.64
2018-02-01T12:09:28.442Z,55.58
2018-02-01T12:12:02.501Z,55.19
2018-02-01T12:14:35.683Z,55.55
2018-02-01T12:17:06.751Z,55.70
2018-02-01T12:19:37.327Z,56.05
2018-02-01T12:22:08.431Z,56.22
2018-02-01T12:24:40.178Z,56.32
2018-02-01T12:27:12.005Z,56.83
2018-02-01T12:29:45.128Z,56.10
2018-02-01T12:32:23.709Z,56.18
2018-02-01T12:34:56.066Z,56.56
2018-02-01T12:37:29.134Z,57.43
2018-02-01T12:40:01.431Z,57.57
2018-02-01T12:42:32.254Z,57.12
2018-02-01T12:45:05.727Z,56.49
2018-02-01T12:47:38.005Z,56.32
2018-02-01T12:50:13.546Z,56.03
2018-02-01T12:52:45.144Z,57.21
2018-02-01T12:55:17.049Z,58.50
2018-02-01T12:57:48.608Z,59.19
2018-02-01T13:00:24.820Z,59.14
2018-02-01T13:02:56.466Z,59.95
2018-02-01T13:05:27.662Z,60.84
2018-02-01T13:07:58.345Z,62.00
2018-02-01T13:10:29.305Z,63.05
2018-02-01T13:13:00.685Z,63.61
2018-02-01T13:15:31.720Z,63.57
2018-02-01T13:18:02.490Z,63.17
2018-02-01T13:20:32.752Z,62.96
2018-02-01T13:23:03.399Z,62.30
2018-02-01T13:25:34.256Z,62.03
2018-02-01T13:28:05.219Z,62.19
2018-02-01T13:30:37.185Z,62.89
2018-02-01T13:33:09.754Z,62.16
2018-02-01T13:35:40.248Z,64.07
2018-02-01T13:38:11.940Z,64.75
2018-02-01T13:40:42.539Z,66.04
2018-02-01T13:46:20.423Z,67.49
2018-02-01T13:48:52.416Z,67.78
2018-02-01T13:51:22.684Z,67.43
2018-02-01T13:53:53.740Z,67.57
2018-02-01T13:56:24.284Z,67.18
2018-02-01T13:58:55.215Z,66.82
2018-02-01T14:01:26.320Z,67.19
2018-02-01T14:03:57.353Z,67.88
2018-02-01T14:06:29.227Z,67.14
2018-02-01T14:09:01.338Z,66.98
2018-02-01T14:11:32.798Z,66.90
2018-02-01T14:14:05.006Z,67.05
2018-02-01T14:16:39.670Z,67.06
2018-02-01T14:19:10.685Z,66.83
2018-02-01T14:21:41.496Z,66.80
2018-02-01T14:24:13.574Z,67.06
2018-02-01T14:26:44.231Z,67.65
2018-02-01T14:29:14.650Z,68.26
2018-02-01T14:31:46.582Z,68.58
2018-02-01T14:34:17.823Z,68.85
2018-02-01T14:37:01.514Z,69.20
2018-02-01T14:39:32.295Z,69.26
2018-02-01T14:42:03.119Z,69.26
2018-02-01T14:44:42.375Z,69.22
2018-02-01T14:47:14.187Z,69.20
2018-02-01T14:49:48.461Z,68.78
2018-02-01T14:52:20.038Z,68.83
2018-02-01T14:54:51.498Z,69.02
2018-02-01T14:57:24.192Z,68.68
2018-02-01T14:59:56.688Z,69.46
2018-02-01T15:02:28.378Z,69.65
2018-02-01T15:04:58.985Z,69.47
2018-02-01T15:07:30.262Z,69.49
2018-02-01T15:10:01.900Z,69.68
2018-02-01T15:12:32.805Z,69.59
2018-02-01T15:15:06.230Z,69.44
2018-02-01T15:17:37.290Z,69.30
2018-02-01T15:20:09.239Z,69.03
2018-02-01T15:22:42.438Z,69.45
2018-02-01T15:25:13.475Z,68.91
2018-02-01T15:27:45.475Z,69.27
2018-02-01T15:30:19.141Z,69.15
2018-02-01T15:32:50.514Z,69.11
2018-02-01T15:35:23.331Z,68.58
2018-02-01T15:37:54.677Z,68.77
2018-02-01T15:40:26.591Z,69.29
2018-02-01T15:42:58.659Z,68.77
2018-02-01T15:45:29.401Z,67.92
2018-02-01T15:48:00.139Z,68.89
2018-02-01T15:50:31.471Z,68.77
2018-02-01T15:53:02.845Z,68.61
2018-02-01T15:55:34.793Z,68.32
2018-02-01T15:58:09.553Z,68.29
2018-02-01T16:00:47.218Z,68.06
2018-02-01T16:03:29.881Z,68.00
2018-02-01T16:06:03.097Z,68.48
2018-02-01T16:08:34.631Z,68.29
2018-02-01T16:11:05.450Z,68.11
2018-02-01T16:13:40.074Z,67.88
2018-02-01T16:16:16.616Z,67.79
2018-02-01T16:18:54.271Z,67.62
2018-02-01T16:21:26.504Z,67.73
2018-02-01T16:23:58.933Z,67.78
2018-02-01T16:26:34.367Z,67.25
2018-02-01T16:29:07.045Z,67.14
2018-02-01T16:31:38.185Z,66.96
2018-02-01T16:34:09.379Z,66.87
2018-02-01T16:36:40.483Z,66.56
2018-02-01T16:39:17.727Z,66.36
2018-02-01T16:42:09.697Z,66.11
2018-02-01T16:44:42.447Z,66.04
2018-02-01T16:47:27.336Z,66.12
2018-02-01T16:50:03.263Z,66.03
2018-02-01T16:52:43.614Z,65.88
2018-02-01T16:55:14.870Z,65.90
2018-02-01T16:57:46.940Z,65.57
2018-02-01T17:00:22.444Z,65.63
2018-02-01T17:02:58.455Z,65.85
2018-02-01T17:05:31.035Z,66.01
2018-02-01T17:08:03.500Z,65.89
2018-02-01T17:10:34.370Z,65.28
2018-02-01T17:13:05.689Z,65.18
2018-02-01T17:15:38.371Z,64.88
2018-02-01T17:18:09.654Z,64.56
2018-02-01T17:20:42.642Z,64.83
2018-02-01T17:23:16.065Z,64.90
2018-02-01T17:25:48.504Z,64.69
2018-02-01T17:28:20.711Z,64.67
2018-02-01T17:30:59.889Z,64.33
2018-02-01T17:33:35.983Z,64.42
2018-02-01T17:36:10.868Z,65.04
2018-02-01T17:41:16.990Z,64.78
2018-02-01T17:43:53.948Z,64.93
2018-02-01T17:46:29.856Z,65.10
2018-02-01T17:49:04.952Z,64.91
2018-02-01T17:51:37.928Z,64.98
2018-02-01T17:54:10.981Z,65.15
2018-02-01T17:56:45.244Z,64.99
2018-02-01T17:59:20.400Z,65.12
2018-02-01T18:01:54.673Z,64.69
2018-02-01T18:04:31.877Z,64.59
2018-02-01T18:07:04.895Z,64.83
2018-02-01T18:09:39.636Z,65.11
2018-02-01T18:12:16.822Z,64.99
2018-02-01T18:14:51.191Z,65.26
2018-02-01T18:17:29.889Z,65.47
2018-02-01T18:20:04.970Z,65.43
2018-02-01T18:22:40.683Z,65.63
2018-02-01T18:25:15.419Z,65.77
2018-02-01T18:27:51.178Z,65.15
2018-02-01T18:30:31.149Z,64.83
2018-02-01T18:33:07.450Z,65.05
2018-02-01T18:35:44.350Z,64.90
2018-02-01T18:38:22.824Z,64.90
2018-02-01T18:40:59.242Z,64.79
2018-02-01T18:43:34.851Z,64.97
2018-02-01T18:46:11.771Z,65.33
2018-02-01T18:48:49.945Z,65.42
2018-02-01T18:51:29.649Z,65.26
2018-02-01T18:54:07.192Z,65.36
2018-02-01T18:56:43.988Z,64.54
2018-02-01T18:59:20.946Z,64.80
2018-02-01T19:01:58.642Z,64.84
2018-02-01T19:04:36.771Z,64.59
2018-02-01T19:07:16.182Z,64.61
2018-02-01T19:10:14.445Z,64.46
2018-02-01T19:12:56.421Z,64.44
2018-02-01T19:15:39.230Z,64.48
2018-02-01T19:18:15.830Z,64.52
2018-02-01T19:20:55.211Z,63.98
2018-02-01T19:23:30.616Z,64.33
2018-02-01T19:26:08.458Z,64.15
2018-02-01T19:28:51.844Z,63.92
2018-02-01T19:31:33.727Z,63.83
2018-02-01T19:34:16.872Z,63.01
2018-02-01T19:36:57.137Z,62.63
2018-02-01T19:39:35.008Z,62.47
2018-02-01T19:42:13.554Z,62.26
2018-02-01T19:44:51.305Z,62.22
2018-02-01T19:47:29.571Z,62.20
2018-02-01T19:50:09.474Z,62.29
2018-02-01T19:52:47.761Z,62.52
2018-02-01T19:55:30.320Z,63.31
2018-02-01T19:58:18.633Z,63.55
2018-02-01T20:00:59.573Z,63.76
2018-02-01T20:03:46.016Z,63.77
2018-02-01T20:06:22.836Z,64.56
2018-02-01T20:09:01.743Z,65.67
2018-02-01T20:11:36.780Z,67.34
2018-02-01T20:14:14.336Z,68.64
2018-02-01T20:16:54.805Z,68.54
2018-02-01T20:19:33.414Z,68.09
2018-02-01T20:22:17.174Z,68.70
2018-02-01T20:25:00.405Z,68.24
2018-02-01T20:27:41.952Z,68.37
2018-02-01T20:32:45.100Z,68.61
2018-02-01T20:35:20.825Z,68.01
2018-02-01T20:37:57.689Z,67.78
2018-02-01T20:40:32.873Z,67.99
2018-02-01T20:43:05.180Z,67.92
2018-02-01T20:45:38.869Z,68.06
2018-02-01T20:48:13.111Z,68.02
2018-02-01T20:50:45.000Z,67.96
2018-02-01T20:53:17.694Z,68.25
2018-02-01T20:55:50.323Z,68.55
2018-02-01T20:58:23.096Z,68.72
2018-02-01T21:00:57.673Z,68.57
2018-02-01T21:03:32.713Z,68.26
2018-02-01T21:06:07.576Z,68.42
2018-02-01T21:08:41.109Z,68.40
2018-02-01T21:11:15.665Z,69.11
2018-02-01T21:13:50.924Z,68.55
2018-02-01T21:16:25.656Z,68.00
2018-02-01T21:18:57.258Z,67.62
2018-02-01T21:21:30.974Z,67.60
2018-02-01T21:24:03.139Z,67.14
2018-02-01T21:26:33.975Z,67.06
2018-02-01T21:31:32.361Z,67.64
2018-02-01T21:34:04.445Z,67.59
2018-02-01T21:36:35.657Z,67.42
2018-02-01T21:39:07.305Z,67.33
2018-02-01T21:41:40.900Z,67.49
2018-02-01T21:44:12.835Z,67.60
2018-02-01T21:46:44.257Z,67.53
2018-02-01T21:49:15.821Z,67.56
2018-02-01T21:51:47.394Z,67.38
2018-02-01T21:54:20.100Z,67.31
2018-02-01T21:56:51.277Z,66.81
2018-02-01T21:59:22.537Z,66.64
2018-02-01T22:01:57.778Z,66.91
2018-02-01T22:04:29.862Z,67.00
2018-02-01T22:07:00.945Z,66.47
2018-02-01T22:09:33.048Z,66.30
2018-02-01T22:12:04.794Z,66.57
2018-02-01T22:14:37.132Z,66.79
2018-02-01T22:17:08.443Z,67.02
2018-02-01T22:19:40.586Z,67.24
2018-02-01T22:22:14.856Z,67.40
2018-02-01T22:24:45.778Z,67.02
2018-02-01T22:27:17.608Z,66.96
2018-02-01T22:29:48.263Z,67.12
2018-02-01T22:32:20.182Z,67.39
2018-02-01T22:34:51.370Z,67.35
2018-02-01T22:37:22.344Z,67.55
2018-02-01T22:39:52.852Z,67.21
2018-02-01T22:42:24.381Z,66.63
2018-02-01T22:44:54.926Z,66.38
2018-02-01T22:47:25.844Z,66.55
2018-02-01T22:49:56.379Z,66.15
2018-02-01T22:52:27.848Z,66.57
2018-02-01T22:54:58.262Z,66.53
2018-02-01T22:57:28.747Z,66.42
2018-02-01T22:59:59.007Z,65.97
2018-02-01T23:02:29.737Z,66.43
2018-02-01T23:05:00.238Z,65.90
2018-02-01T23:07:30.935Z,65.68
2018-02-01T23:10:01.341Z,65.56
2018-02-01T23:12:31.735Z,65.10
2018-02-01T23:15:05.141Z,65.06
2018-02-01T23:17:35.881Z,64.66
2018-02-01T23:20:06.842Z,64.76
2018-02-01T23:22:37.123Z,64.92
2018-02-01T23:25:07.685Z,65.00
2018-02-01T23:27:38.290Z,64.80
2018-02-01T23:30:08.620Z,65.29
2018-02-01T23:32:39.094Z,66.22
2018-02-01T23:35:09.553Z,65.62
2018-02-01T23:37:39.990Z,65.51
2018-02-01T23:40:10.690Z,65.28
2018-02-01T23:42:41.133Z,65.13
2018-02-01T23:45:16.879Z,64.41
2018-02-01T23:48:18.682Z,65.33
2018-02-01T23:50:51.392Z,65.39
2018-02-01T23:53:21.979Z,64.83
2018-02-01T23:55:52.804Z,64.67
2018-02-01T23:58:23.429Z,65.18
